Time;durP1;ratioP1;P1;durP2;ratioP2;P2;SDS_P1;SDS_P2;PMS_P1;PMS_P2;Temp;Humidity;BMP_temperature;BMP_pressure;BME280_temperature;BME280_humidity;BME280_pressure;Samples;Min_cycle;Max_cycle;Signal;HPM_P1;HPM_P2
2022/01/28 00:01:08;;;;;;;13.00;0.77;;;5.00;99.90;;;;;;6076860;23;20043;-75
2022/01/28 00:03:36;;;;;;;9.27;0.55;;;5.00;99.90;;;;;;6076553;23;20066;-75
2022/01/28 00:06:04;;;;;;;13.35;0.70;;;4.90;99.90;;;;;;6077126;23;20085;-75
2022/01/28 00:08:29;;;;;;;20.33;1.38;;;4.90;99.90;;;;;;6077120;23;20006;-74
2022/01/28 00:10:55;;;;;;;16.55;1.05;;;5.00;99.90;;;;;;6077170;23;20014;-74
2022/01/28 00:38:53;;;;;;;16.77;0.80;;;5.30;99.90;;;;;;6167403;23;20005;-74
2022/01/28 00:41:19;;;;;;;11.35;0.75;;;5.20;99.90;;;;;;6167776;23;20118;-74
2022/01/28 00:43:44;;;;;;;12.75;0.50;;;5.10;99.90;;;;;;6141848;23;20335;-75
2022/01/28 00:46:10;;;;;;;15.40;0.70;;;5.10;99.90;;;;;;6171695;23;20020;-74
2022/01/28 00:48:36;;;;;;;19.25;1.27;;;5.10;99.90;;;;;;6141351;23;20320;-75
2022/01/28 00:51:09;;;;;;;12.65;0.63;;;5.10;99.90;;;;;;6169387;23;20029;-75
2022/01/28 00:53:34;;;;;;;14.23;0.50;;;4.90;99.90;;;;;;6183317;23;20009;-75
2022/01/28 00:56:00;;;;;;;14.32;0.75;;;4.90;99.90;;;;;;6197029;23;20019;-74
2022/01/28 00:58:26;;;;;;;7.43;0.70;;;5.00;99.90;;;;;;6196828;23;20047;-73
2022/01/28 01:00:51;;;;;;;16.83;1.02;;;5.00;99.90;;;;;;6197281;23;20036;-74
2022/01/28 01:03:17;;;;;;;7.05;0.50;;;5.00;99.90;;;;;;6169994;23;20012;-75
2022/01/28 01:05:43;;;;;;;15.32;0.75;;;4.90;99.90;;;;;;6197251;23;20017;-75
2022/01/28 01:08:09;;;;;;;9.48;0.47;;;4.90;99.90;;;;;;6197303;23;20417;-75
2022/01/28 01:10:35;;;;;;;8.98;0.52;;;4.80;99.90;;;;;;6170339;23;20009;-74
2022/01/28 01:13:01;;;;;;;11.05;0.90;;;4.80;99.90;;;;;;6170031;23;20021;-74
2022/01/28 01:15:32;;;;;;;13.15;0.98;;;4.80;99.90;;;;;;6196869;23;20006;-74
2022/01/28 01:18:23;;;;;;;11.15;0.55;;;4.70;99.90;;;;;;6169876;23;20064;-74
2022/01/28 01:23:13;;;;;;;9.43;0.63;;;4.60;99.90;;;;;;6196857;23;20000;-74
2022/01/28 01:28:30;;;;;;;10.90;0.60;;;4.70;99.90;;;;;;6196333;23;20009;-74
2022/01/28 01:30:58;;;;;;;18.52;0.88;;;4.60;99.90;;;;;;6197056;23;20498;-74
2022/01/28 01:33:24;;;;;;;8.43;0.50;;;4.60;99.90;;;;;;6170460;23;20036;-74
2022/01/28 01:35:50;;;;;;;13.38;0.55;;;4.70;99.90;;;;;;6197186;23;20039;-74
2022/01/28 01:56:00;;;;;;;2.83;0.20;;;3.80;99.90;;;;;;6167113;23;20029;-75
2022/01/28 02:05:40;;;;;;;2.92;0.20;;;3.20;99.90;;;;;;6166826;23;20033;-75
2022/01/28 02:08:06;;;;;;;1.35;0.10;;;3.10;99.90;;;;;;6141092;23;20020;-75
2022/01/28 02:10:33;;;;;;;1.05;0.00;;;3.00;99.90;;;;;;6166562;23;20013;-74
2022/01/28 02:12:59;;;;;;;1.65;0.10;;;3.00;99.90;;;;;;6166749;23;20243;-74
2022/01/28 02:15:25;;;;;;;2.83;0.20;;;3.00;99.90;;;;;;6168111;23;20285;-74
2022/01/28 02:17:50;;;;;;;5.93;0.30;;;3.00;99.90;;;;;;6168642;23;20013;-74
2022/01/28 02:20:34;;;;;;;3.35;0.20;;;3.10;99.90;;;;;;6168277;23;20001;-74
2022/01/28 02:23:00;;;;;;;3.85;0.20;;;3.10;99.90;;;;;;6168858;23;20387;-75
2022/01/28 02:25:28;;;;;;;6.82;0.25;;;3.10;99.90;;;;;;6168054;23;20021;-74
2022/01/28 02:27:56;;;;;;;4.82;0.20;;;3.10;99.90;;;;;;6168912;23;20029;-74
2022/01/28 02:38:20;;;;;;;3.08;0.20;;;3.00;99.90;;;;;;6169504;23;20012;-74
2022/01/28 02:40:51;;;;;;;2.28;0.10;;;3.00;99.90;;;;;;6141085;23;20093;-74
2022/01/28 02:53:50;;;;;;;4.95;0.80;;;3.00;99.90;;;;;;6170259;23;20093;-74
2022/01/28 02:56:35;;;;;;;7.53;0.50;;;2.90;99.90;;;;;;6197377;23;20040;-74
2022/01/28 02:59:02;;;;;;;3.70;0.50;;;2.90;99.90;;;;;;6147355;23;20013;-74
2022/01/28 03:01:28;;;;;;;9.32;0.70;;;3.00;99.90;;;;;;6197940;23;20013;-74
2022/01/28 03:03:58;;;;;;;8.63;0.40;;;3.20;99.90;;;;;;6197785;23;20459;-74
2022/01/28 03:06:24;;;;;;;4.35;0.30;;;3.20;99.90;;;;;;6198729;23;20032;-74
2022/01/28 03:28:05;;;;;;;5.85;0.30;;;2.80;99.90;;;;;;6190365;23;20076;-74
2022/01/28 03:30:30;;;;;;;7.38;0.20;;;2.80;99.90;;;;;;6197359;23;20013;-74
2022/01/28 03:32:56;;;;;;;6.75;0.30;;;2.90;99.90;;;;;;6175936;23;20443;-74
2022/01/28 03:35:21;;;;;;;5.32;0.40;;;3.00;99.90;;;;;;6199136;23;20005;-74
2022/01/28 03:45:23;;;;;;;5.10;0.50;;;3.20;99.90;;;;;;6197339;23;20028;-74
2022/01/28 03:47:48;;;;;;;10.43;0.52;;;3.20;99.90;;;;;;6198078;23;20005;-74
2022/01/28 03:50:14;;;;;;;6.88;0.30;;;3.20;99.90;;;;;;6197293;23;20004;-74
2022/01/28 03:52:40;;;;;;;8.05;0.35;;;3.10;99.90;;;;;;6197391;23;20005;-74
2022/01/28 03:55:06;;;;;;;7.50;0.40;;;3.00;99.90;;;;;;6197811;23;20013;-74
2022/01/28 03:57:31;;;;;;;7.97;0.50;;;3.10;99.90;;;;;;6197396;23;20005;-74
2022/01/28 03:59:57;;;;;;;6.75;0.60;;;3.00;99.90;;;;;;6197408;23;20001;-74
2022/01/28 04:02:27;;;;;;;4.38;0.25;;;3.00;99.90;;;;;;6198072;23;20084;-74
2022/01/28 04:12:51;;;;;;;5.93;0.30;;;3.00;99.90;;;;;;6197616;23;20016;-74
2022/01/28 04:18:06;;;;;;;5.15;0.20;;;3.00;99.90;;;;;;6110543;23;20025;-74
2022/01/28 04:20:32;;;;;;;4.43;0.20;;;3.00;99.90;;;;;;6134439;23;20352;-74
2022/01/28 04:22:58;;;;;;;5.13;0.20;;;2.80;99.90;;;;;;6134464;23;20018;-74
2022/01/28 04:25:23;;;;;;;2.03;0.20;;;2.60;99.90;;;;;;6135030;23;20078;-74
2022/01/28 04:27:49;;;;;;;4.32;0.20;;;2.60;99.90;;;;;;6135011;23;20010;-73
2022/01/28 04:30:15;;;;;;;4.50;0.20;;;2.70;99.90;;;;;;6135009;23;20021;-74
2022/01/28 04:32:40;;;;;;;5.72;0.20;;;2.60;99.90;;;;;;6135251;23;20014;-74
2022/01/28 04:35:07;;;;;;;5.30;0.20;;;2.80;99.90;;;;;;6135249;23;20006;-74
2022/01/28 04:37:47;;;;;;;4.43;0.30;;;2.60;99.90;;;;;;6110016;23;20006;-74
2022/01/28 04:45:22;;;;;;;4.22;0.30;;;2.70;99.90;;;;;;6135034;23;20085;-74
2022/01/28 04:48:10;;;;;;;4.97;0.22;;;2.80;99.90;;;;;;6135296;23;20006;-75
2022/01/28 05:00:54;;;;;;;6.00;0.30;;;3.10;99.90;;;;;;6167446;23;20096;-74
2022/01/28 05:03:35;;;;;;;4.90;0.32;;;3.00;99.90;;;;;;6167422;23;20009;-74
2022/01/28 05:14:37;;;;;;;8.02;0.40;;;3.10;99.90;;;;;;6134708;23;20431;-74
2022/01/28 05:27:39;;;;;;;6.43;0.32;;;3.20;99.90;;;;;;6134436;23;20054;-75
2022/01/28 05:30:06;;;;;;;5.07;0.20;;;3.10;99.90;;;;;;6134962;23;20014;-74
2022/01/28 05:32:32;;;;;;;5.50;0.28;;;3.00;99.90;;;;;;6110159;23;20119;-74
2022/01/28 05:34:58;;;;;;;4.75;0.20;;;3.00;99.90;;;;;;6110088;23;20014;-74
2022/01/28 05:37:23;;;;;;;5.32;0.45;;;2.90;99.90;;;;;;6134448;23;20358;-75
2022/01/28 05:39:49;;;;;;;5.65;0.30;;;2.90;99.90;;;;;;6135197;23;20464;-75
2022/01/28 05:42:15;;;;;;;3.97;0.50;;;3.00;99.90;;;;;;6134178;23;20053;-74
2022/01/28 05:44:40;;;;;;;5.00;0.20;;;2.90;99.90;;;;;;6110395;23;20022;-75
2022/01/28 05:47:06;;;;;;;5.68;0.25;;;3.00;99.90;;;;;;6135966;23;20006;-74
2022/01/28 05:49:45;;;;;;;6.05;0.30;;;2.90;99.90;;;;;;6150907;23;20025;-74
2022/01/28 05:59:56;;;;;;;10.20;0.40;;;3.00;99.90;;;;;;6197787;23;20052;-75
2022/01/28 06:14:30;;;;;;;5.65;0.45;;;3.10;99.90;;;;;;6197201;23;20016;-74
2022/01/28 06:16:55;;;;;;;8.48;0.82;;;3.00;99.90;;;;;;6198191;23;20017;-74
2022/01/28 06:22:21;;;;;;;5.97;0.68;;;3.20;99.90;;;;;;6138716;23;20033;-79
2022/01/28 06:24:46;;;;;;;5.50;0.30;;;3.30;99.90;;;;;;6113054;23;20345;-78
2022/01/28 06:27:12;;;;;;;7.82;0.40;;;3.40;99.90;;;;;;6136858;23;20033;-79
2022/01/28 06:41:01;;;;;;;9.45;0.35;;;3.60;99.90;;;;;;6138331;23;20017;-78
2022/01/28 06:43:26;;;;;;;6.18;0.30;;;3.60;99.90;;;;;;6112614;23;20092;-78
2022/01/28 06:45:52;;;;;;;3.30;0.20;;;3.50;99.90;;;;;;6138556;23;20014;-78
2022/01/28 06:48:19;;;;;;;7.32;0.32;;;3.50;99.90;;;;;;6138023;23;20079;-78
2022/01/28 06:50:45;;;;;;;5.78;0.40;;;3.60;99.90;;;;;;6138914;23;20065;-79
2022/01/28 06:53:12;;;;;;;10.20;0.47;;;3.60;99.90;;;;;;6138817;23;20058;-79
2022/01/28 06:55:38;;;;;;;8.23;0.30;;;3.60;99.90;;;;;;6138651;23;20006;-79
2022/01/28 06:58:05;;;;;;;8.73;0.40;;;3.60;99.90;;;;;;6112987;23;20034;-78
2022/01/28 07:00:37;;;;;;;9.20;0.30;;;3.60;99.90;;;;;;6111191;23;20017;-78
2022/01/28 07:03:11;;;;;;;7.13;0.73;;;3.60;99.90;;;;;;6136932;23;20013;-79
2022/01/28 07:05:37;;;;;;;9.98;0.47;;;3.70;99.90;;;;;;6117341;23;20091;-79
2022/01/28 07:08:04;;;;;;;5.28;0.30;;;3.60;99.90;;;;;;6142107;23;20596;-78
2022/01/28 07:10:31;;;;;;;6.60;0.20;;;3.60;99.90;;;;;;6137222;23;20069;-78
2022/01/28 07:12:57;;;;;;;7.07;0.63;;;3.50;99.90;;;;;;6113264;23;20056;-78
2022/01/28 07:15:24;;;;;;;4.75;0.30;;;3.50;99.90;;;;;;6137782;23;20010;-78
2022/01/28 07:18:12;;;;;;;5.90;0.30;;;3.50;99.90;;;;;;6138848;23;20034;-78
2022/01/28 07:20:38;;;;;;;6.43;0.25;;;3.50;99.90;;;;;;6137957;23;20385;-78
2022/01/28 07:23:03;;;;;;;4.65;0.30;;;3.60;99.90;;;;;;6112542;23;20010;-78
2022/01/28 07:25:29;;;;;;;4.68;0.30;;;3.70;99.90;;;;;;6138208;23;20018;-78
2022/01/28 07:27:55;;;;;;;8.45;0.40;;;3.70;99.90;;;;;;6088111;23;20016;-79
2022/01/28 07:30:20;;;;;;;9.95;0.45;;;3.80;99.90;;;;;;6136921;23;20025;-79
2022/01/28 07:32:49;;;;;;;7.75;0.40;;;3.80;99.90;;;;;;6112352;23;20010;-78
2022/01/28 07:35:14;;;;;;;12.93;0.50;;;3.80;99.90;;;;;;6111744;23;20021;-78
2022/01/28 07:37:40;;;;;;;6.43;0.40;;;3.80;99.90;;;;;;6111524;23;20010;-78
2022/01/28 07:40:07;;;;;;;6.85;0.60;;;3.80;99.90;;;;;;6111781;23;20049;-78
2022/01/28 07:42:35;;;;;;;5.13;0.40;;;3.80;99.90;;;;;;6111283;23;20025;-78
2022/01/28 07:45:00;;;;;;;6.15;0.40;;;3.80;99.90;;;;;;6086248;23;20024;-78
2022/01/28 07:47:26;;;;;;;8.25;0.40;;;3.80;99.90;;;;;;6111286;23;20006;-78
2022/01/28 07:49:52;;;;;;;4.55;0.35;;;3.90;99.90;;;;;;6110937;23;20010;-78
2022/01/28 07:52:17;;;;;;;6.78;0.30;;;3.90;99.90;;;;;;6137005;23;20049;-79
2022/01/28 07:54:48;;;;;;;3.65;0.30;;;3.90;99.90;;;;;;6137505;23;20010;-78
2022/01/28 07:57:13;;;;;;;;;;;3.80;99.90;;;;;;6112061;23;20037;-79
2022/01/28 07:59:39;;;;;;;8.85;0.40;;;3.70;99.90;;;;;;6135155;23;19932;-78
2022/01/28 08:02:05;;;;;;;7.30;0.60;;;3.80;99.90;;;;;;6087202;23;20018;-78
2022/01/28 08:04:31;;;;;;;4.47;0.30;;;3.80;99.90;;;;;;6135385;23;20336;-78
2022/01/28 08:06:56;;;;;;;5.18;0.77;;;3.70;99.90;;;;;;6087234;23;20002;-79
2022/01/28 08:09:22;;;;;;;7.13;0.43;;;3.80;99.90;;;;;;6136908;23;20034;-78
2022/01/28 08:11:47;;;;;;;11.35;0.60;;;3.90;99.90;;;;;;6111013;23;20037;-78
2022/01/28 08:14:14;;;;;;;5.20;0.40;;;3.90;99.90;;;;;;6136507;23;20081;-79
2022/01/28 08:16:40;;;;;;;5.13;0.30;;;3.90;99.90;;;;;;6111075;23;20020;-79
2022/01/28 08:19:05;;;;;;;13.13;0.50;;;3.90;99.90;;;;;;6137298;23;20058;-79
2022/01/28 08:21:31;;;;;;;10.80;0.68;;;4.00;99.90;;;;;;6110613;23;20014;-78
2022/01/28 08:28:16;;;;;;;7.93;0.60;;;4.00;99.90;;;;;;6137413;23;20021;-79
2022/01/28 08:30:41;;;;;;;4.35;0.30;;;4.00;99.90;;;;;;6134736;23;20006;-77
2022/01/28 08:33:07;;;;;;;5.47;0.40;;;3.90;99.90;;;;;;6137597;23;20081;-78
2022/01/28 08:35:37;;;;;;;6.78;0.32;;;3.90;99.90;;;;;;6136953;23;20069;-79
2022/01/28 08:38:12;;;;;;;9.77;0.40;;;4.00;99.90;;;;;;6106099;23;20033;-78
2022/01/28 08:40:39;;;;;;;4.65;0.30;;;4.00;99.90;;;;;;6137157;23;20006;-78
2022/01/28 08:43:04;;;;;;;5.20;0.40;;;3.90;99.90;;;;;;6141866;23;20010;-78
2022/01/28 08:45:30;;;;;;;9.52;0.93;;;3.80;99.90;;;;;;6139166;23;20182;-78
2022/01/28 08:47:55;;;;;;;8.65;0.60;;;3.80;99.90;;;;;;6110218;23;20010;-79
2022/01/28 08:50:21;;;;;;;11.07;0.40;;;3.90;99.90;;;;;;6135913;23;20010;-78
2022/01/28 08:52:47;;;;;;;11.05;0.63;;;3.80;99.90;;;;;;6136608;23;20081;-79
2022/01/28 09:03:17;;;;;;;4.50;0.30;;;3.70;99.90;;;;;;6136269;23;20021;-78
2022/01/28 09:05:43;;;;;;;6.95;0.30;;;3.90;99.90;;;;;;6108472;23;20077;-79
2022/01/28 09:08:10;;;;;;;7.80;0.65;;;4.00;99.90;;;;;;6134964;23;20068;-80
2022/01/28 09:10:42;;;;;;;6.20;0.20;;;4.10;99.90;;;;;;6109565;23;20145;-79
2022/01/28 09:15:35;;;;;;;3.17;0.20;;;4.30;99.90;;;;;;6133491;23;20018;-79
2022/01/28 09:18:01;;;;;;;6.22;0.30;;;4.30;99.90;;;;;;6136262;23;20013;-79
2022/01/28 09:20:29;;;;;;;4.63;0.40;;;4.40;99.90;;;;;;6080789;23;20022;-76
2022/01/28 09:22:55;;;;;;;8.27;0.40;;;4.50;99.90;;;;;;6129778;23;20018;-76
2022/01/28 09:25:21;;;;;;;5.03;0.30;;;4.70;99.90;;;;;;6106424;23;20057;-77
2022/01/28 09:27:46;;;;;;;8.95;0.50;;;4.70;99.90;;;;;;6106270;23;20010;-77
2022/01/28 09:30:12;;;;;;;10.70;0.45;;;4.80;99.90;;;;;;6108613;23;20017;-76
2022/01/28 11:33:08;;;;;;;10.43;0.70;;;7.30;99.90;;;;;;6140507;23;20020;-78
2022/01/28 11:35:34;;;;;;;14.00;1.13;;;7.30;99.90;;;;;;6134947;23;20044;-77
2022/01/28 11:38:04;;;;;;;13.13;0.80;;;7.20;99.90;;;;;;6110447;23;20006;-78
2022/01/28 11:40:44;;;;;;;13.80;0.50;;;7.20;99.90;;;;;;6137394;23;20014;-77
2022/01/28 11:43:17;;;;;;;8.00;0.43;;;7.40;99.90;;;;;;6137548;23;20014;-78
2022/01/28 11:45:43;;;;;;;9.70;0.40;;;7.70;99.90;;;;;;6135761;23;20352;-77
2022/01/28 11:48:09;;;;;;;10.38;0.95;;;7.70;99.90;;;;;;6111205;23;20006;-77
2022/01/28 11:50:34;;;;;;;10.65;0.45;;;7.80;99.90;;;;;;6136124;23;20009;-77
2022/01/28 11:53:00;;;;;;;9.68;0.40;;;7.80;99.90;;;;;;6136901;23;20014;-77
2022/01/28 11:55:26;;;;;;;8.40;0.65;;;7.90;99.90;;;;;;6137603;23;20368;-77
2022/01/28 11:58:06;;;;;;;9.88;0.60;;;8.00;99.90;;;;;;6133643;23;20089;-78
2022/01/28 12:00:55;;;;;;;9.10;0.45;;;7.90;99.90;;;;;;6135876;23;20013;-78
2022/01/28 12:03:30;;;;;;;7.47;0.50;;;7.90;99.90;;;;;;6137106;23;20006;-79
2022/01/28 12:05:57;;;;;;;14.98;0.60;;;7.80;99.90;;;;;;6143747;23;20033;-79
2022/01/28 12:08:28;;;;;;;6.63;0.70;;;7.90;99.90;;;;;;6143000;23;20045;-79
2022/01/28 12:10:54;;;;;;;9.73;0.40;;;8.10;99.90;;;;;;6138248;23;20014;-79
2022/01/28 12:21:37;;;;;;;15.50;0.65;;;8.10;99.90;;;;;;6141257;23;20057;-77
2022/01/28 12:24:18;;;;;;;6.47;0.40;;;8.00;99.90;;;;;;6135613;23;20021;-79
2022/01/28 12:26:56;;;;;;;7.35;0.68;;;7.70;99.90;;;;;;6110334;23;20006;-76
2022/01/28 12:29:29;;;;;;;10.43;0.50;;;7.50;99.90;;;;;;6135158;23;20016;-77
2022/01/28 12:31:57;;;;;;;6.35;0.40;;;7.40;99.90;;;;;;6137111;23;20014;-78
2022/01/28 12:34:23;;;;;;;9.32;0.55;;;7.40;99.90;;;;;;6137047;23;20026;-76
2022/01/28 12:36:49;;;;;;;3.67;0.40;;;7.30;99.90;;;;;;6137063;23;20022;-77
2022/01/28 12:41:57;;;;;;;6.55;0.85;;;7.10;99.90;;;;;;6134480;23;20006;-77
2022/01/28 12:44:23;;;;;;;8.05;0.40;;;7.40;99.90;;;;;;6135701;23;20065;-77
2022/01/28 12:46:57;;;;;;;6.03;0.40;;;7.60;99.90;;;;;;6136150;23;20013;-76
2022/01/28 12:49:25;;;;;;;5.63;0.40;;;7.70;99.90;;;;;;6135315;23;20060;-76
2022/01/28 12:51:54;;;;;;;8.20;0.40;;;7.70;99.90;;;;;;6135426;23;20013;-76
2022/01/28 12:54:33;;;;;;;9.77;0.60;;;7.80;99.90;;;;;;6109641;23;20372;-77
2022/01/28 12:56:58;;;;;;;6.47;0.55;;;7.80;99.90;;;;;;6109630;23;20113;-77
2022/01/28 12:59:24;;;;;;;9.75;0.63;;;7.80;99.90;;;;;;6084826;23;20444;-77
2022/01/28 13:01:54;;;;;;;7.47;0.32;;;7.80;99.90;;;;;;6135757;23;20016;-76
2022/01/28 13:04:22;;;;;;;3.42;0.30;;;7.80;99.90;;;;;;6135030;23;20044;-76
2022/01/28 13:09:20;;;;;;;3.17;0.20;;;7.80;99.90;;;;;;6133767;23;20057;-76
2022/01/28 13:11:48;;;;;;;2.20;0.20;;;7.90;99.90;;;;;;6135038;23;20014;-77
2022/01/28 13:14:18;;;;;;;5.20;0.20;;;8.00;99.90;;;;;;6135314;23;20012;-76
2022/01/28 13:16:46;;;;;;;4.05;0.30;;;8.10;99.90;;;;;;6135964;23;20002;-77
2022/01/28 13:19:14;;;;;;;7.30;0.68;;;7.90;99.90;;;;;;6135624;23;20013;-76
2022/01/28 13:21:42;;;;;;;4.90;0.20;;;7.90;99.90;;;;;;6135787;23;20070;-78
2022/01/28 13:24:09;;;;;;;8.27;0.50;;;8.10;99.90;;;;;;6135130;23;20572;-76
2022/01/28 13:26:36;;;;;;;4.07;0.30;;;8.10;99.90;;;;;;6134084;23;20002;-76
2022/01/28 13:29:10;;;;;;;4.03;0.20;;;8.10;99.90;;;;;;6135900;23;20006;-76
2022/01/28 13:31:37;;;;;;;5.32;0.30;;;8.00;99.90;;;;;;6134762;23;20010;-78
2022/01/28 13:34:05;;;;;;;3.00;0.20;;;8.20;99.90;;;;;;6137477;23;20040;-78
2022/01/28 13:36:49;;;;;;;6.78;0.40;;;8.40;99.90;;;;;;6135575;23;20010;-79
2022/01/28 13:39:20;;;;;;;4.05;0.30;;;8.00;99.90;;;;;;6114110;23;20017;-78
2022/01/28 13:41:50;;;;;;;5.15;0.40;;;7.90;99.90;;;;;;6135820;23;20077;-78
2022/01/28 13:44:24;;;;;;;4.38;0.30;;;8.10;99.90;;;;;;6135264;23;20014;-78
2022/01/28 13:47:02;;;;;;;3.90;0.22;;;8.50;99.90;;;;;;6136153;23;20014;-76
2022/01/28 13:49:33;;;;;;;4.45;0.30;;;8.70;99.90;;;;;;6108994;23;20009;-77
2022/01/28 13:52:11;;;;;;;2.53;0.20;;;8.90;99.90;;;;;;6136004;23;20037;-76
2022/01/28 13:54:37;;;;;;;5.85;0.25;;;8.70;99.90;;;;;;6134964;23;20010;-78
2022/01/28 14:08:54;;;;;;;10.52;0.85;;;8.20;99.90;;;;;;6136497;23;20021;-76
2022/01/28 14:11:27;;;;;;;7.22;0.30;;;8.10;99.90;;;;;;6110630;23;20006;-77
2022/01/28 14:14:24;;;;;;;6.40;0.40;;;8.10;99.90;;;;;;6137357;23;20006;-75
2022/01/28 14:16:54;;;;;;;4.00;0.50;;;8.20;99.90;;;;;;6137653;23;20014;-76
2022/01/28 14:19:20;;;;;;;6.53;0.40;;;8.10;99.90;;;;;;6136600;23;20125;-76
2022/01/28 14:37:22;;;;;;;3.22;0.30;;;7.80;99.90;;;;;;6135821;23;20025;-77
2022/01/28 14:39:48;;;;;;;3.58;0.30;;;7.80;99.90;;;;;;6138379;23;20010;-77
2022/01/28 14:42:15;;;;;;;7.22;0.50;;;7.70;99.90;;;;;;6137519;23;20010;-76
2022/01/28 14:44:46;;;;;;;5.88;0.60;;;7.80;99.90;;;;;;6112894;23;20032;-76
2022/01/28 14:47:13;;;;;;;8.45;0.50;;;7.80;99.90;;;;;;6138330;23;20005;-78
2022/01/28 14:49:39;;;;;;;5.55;0.40;;;7.80;99.90;;;;;;6086251;23;20782;-77
2022/01/28 15:03:27;;;;;;;4.78;0.40;;;7.90;99.90;;;;;;6137879;23;20052;-78
2022/01/28 15:05:52;;;;;;;8.35;0.85;;;7.80;99.90;;;;;;6109928;23;20109;-78
2022/01/28 15:08:26;;;;;;;7.07;0.40;;;7.80;99.90;;;;;;6137854;23;20036;-78
2022/01/28 15:10:54;;;;;;;7.15;0.40;;;7.80;99.90;;;;;;6137559;23;20085;-77
2022/01/28 15:13:20;;;;;;;9.02;0.50;;;7.70;99.90;;;;;;6136228;23;20061;-77
2022/01/28 15:15:45;;;;;;;6.30;0.40;;;7.70;99.90;;;;;;6135641;23;20006;-76
2022/01/28 15:18:11;;;;;;;7.72;0.70;;;7.60;99.90;;;;;;6088057;23;20017;-78
2022/01/28 15:20:38;;;;;;;7.70;0.50;;;7.60;99.90;;;;;;6135793;23;20033;-77
2022/01/28 15:23:04;;;;;;;4.88;0.40;;;7.50;99.90;;;;;;6137609;23;20102;-77
2022/01/28 15:25:31;;;;;;;9.32;0.77;;;7.40;99.90;;;;;;6111040;23;20474;-76
2022/01/28 15:27:58;;;;;;;6.18;0.50;;;7.40;99.90;;;;;;6111879;23;20061;-78
2022/01/28 15:35:59;;;;;;;5.53;0.50;;;7.30;99.90;;;;;;6137687;23;20029;-77
2022/01/28 15:38:25;;;;;;;5.53;0.43;;;7.20;99.90;;;;;;6111522;23;20010;-77
2022/01/28 15:40:50;;;;;;;4.47;0.35;;;7.10;99.90;;;;;;6137416;23;20018;-78
2022/01/28 15:43:16;;;;;;;3.03;0.30;;;7.10;99.90;;;;;;6110827;23;20010;-78
2022/01/28 15:45:46;;;;;;;4.32;0.30;;;7.00;99.90;;;;;;6137622;23;20045;-77
2022/01/28 15:48:12;;;;;;;;;;;7.00;99.90;;;;;;6138286;23;20017;-77
2022/01/28 15:50:37;;;;;;;6.85;0.70;;;7.00;99.90;;;;;;6096481;23;19905;-77
2022/01/28 15:53:03;;;;;;;2.58;0.30;;;6.90;99.90;;;;;;6136284;23;20014;-77
2022/01/28 15:55:29;;;;;;;2.97;0.40;;;6.90;99.90;;;;;;6136926;23;20432;-79
2022/01/28 15:57:54;;;;;;;4.35;0.50;;;6.80;99.90;;;;;;6137774;23;20058;-78
2022/01/28 16:00:20;;;;;;;4.85;0.50;;;6.80;99.90;;;;;;6137378;23;20013;-79
2022/01/28 16:02:46;;;;;;;6.60;0.73;;;6.80;99.90;;;;;;6111398;23;20014;-79
2022/01/28 16:05:13;;;;;;;3.47;0.68;;;6.70;99.90;;;;;;6111432;23;20022;-78
2022/01/28 16:07:39;;;;;;;5.20;0.50;;;6.70;99.90;;;;;;6135104;23;20009;-79
2022/01/28 16:10:09;;;;;;;3.17;0.45;;;6.70;99.90;;;;;;6137219;23;20518;-79
2022/01/28 16:15:20;;;;;;;5.45;0.50;;;6.60;99.90;;;;;;6136238;23;19919;-78
2022/01/28 16:17:46;;;;;;;3.75;0.40;;;6.50;99.90;;;;;;6137178;23;20010;-78
2022/01/28 16:20:11;;;;;;;4.07;0.68;;;6.50;99.90;;;;;;6111503;23;20150;-78
2022/01/28 16:22:37;;;;;;;2.25;0.50;;;6.50;99.90;;;;;;6110391;23;20002;-78
2022/01/28 16:25:03;;;;;;;5.00;0.70;;;6.50;99.90;;;;;;6137469;23;20018;-79
2022/01/28 16:27:29;;;;;;;2.50;0.55;;;6.50;99.90;;;;;;6134669;23;20040;-77
2022/01/28 16:29:55;;;;;;;3.17;0.57;;;6.40;99.90;;;;;;6135556;23;20014;-77
2022/01/28 16:32:21;;;;;;;1.83;0.47;;;6.40;99.90;;;;;;6136213;23;20037;-79
2022/01/28 16:34:49;;;;;;;2.47;0.50;;;6.40;99.90;;;;;;6136537;23;20072;-79
2022/01/28 16:37:15;;;;;;;3.55;0.50;;;6.40;99.90;;;;;;6134450;23;20014;-79
2022/01/28 16:39:43;;;;;;;1.92;0.50;;;6.40;99.90;;;;;;6136947;23;20014;-78
2022/01/28 16:42:11;;;;;;;2.65;0.55;;;6.40;99.90;;;;;;6136465;23;20002;-78
2022/01/28 16:44:45;;;;;;;2.63;0.60;;;6.40;99.90;;;;;;6135095;23;20044;-78
2022/01/28 16:47:13;;;;;;;1.92;0.30;;;6.40;99.90;;;;;;6110807;23;20006;-78
2022/01/28 16:49:39;;;;;;;2.90;0.50;;;6.40;99.90;;;;;;6110761;23;20520;-77
2022/01/28 16:52:05;;;;;;;1.30;0.40;;;6.40;99.90;;;;;;6073464;23;20021;-77
2022/01/28 16:54:31;;;;;;;5.40;0.60;;;6.30;99.90;;;;;;6136449;23;20010;-77
2022/01/28 16:56:56;;;;;;;2.45;0.65;;;6.20;99.90;;;;;;6136126;23;20102;-77
2022/01/28 16:59:22;;;;;;;2.47;0.50;;;6.20;99.90;;;;;;6110475;23;20010;-77
2022/01/28 17:01:47;;;;;;;2.85;0.52;;;6.20;99.90;;;;;;6110130;23;20010;-77
2022/01/28 17:04:13;;;;;;;2.95;0.55;;;6.20;99.90;;;;;;6137254;23;20433;-79
2022/01/28 17:06:41;;;;;;;2.47;0.75;;;6.10;99.90;;;;;;6136589;23;20069;-77
2022/01/28 17:09:07;;;;;;;3.95;0.73;;;6.10;99.90;;;;;;6136821;23;20358;-78
2022/01/28 17:13:59;;;;;;;2.92;0.70;;;6.00;99.90;;;;;;6136380;23;20009;-78
2022/01/28 17:16:26;;;;;;;4.20;0.98;;;6.00;99.90;;;;;;6136371;23;20014;-77
2022/01/28 17:18:53;;;;;;;2.70;0.70;;;6.00;99.90;;;;;;6136825;23;20050;-78
2022/01/28 17:21:19;;;;;;;2.50;0.60;;;5.90;99.90;;;;;;6136167;23;20014;-76
2022/01/28 17:23:45;;;;;;;2.72;0.60;;;5.90;99.90;;;;;;6136546;23;20002;-77
2022/01/28 17:26:11;;;;;;;5.10;0.70;;;5.90;99.90;;;;;;6134404;23;20074;-78
2022/01/28 17:28:37;;;;;;;3.47;0.70;;;5.90;99.90;;;;;;6110235;23;20006;-77
2022/01/28 17:31:02;;;;;;;2.63;0.70;;;5.90;99.90;;;;;;6136242;23;20024;-77
2022/01/28 17:33:28;;;;;;;2.60;0.77;;;5.90;99.90;;;;;;6136482;23;20006;-77
2022/01/28 17:35:54;;;;;;;6.13;1.10;;;5.90;99.90;;;;;;6135008;23;20014;-78
2022/01/28 17:38:22;;;;;;;4.65;0.80;;;5.90;99.90;;;;;;6110857;23;20006;-78
2022/01/28 17:40:48;;;;;;;6.50;1.45;;;6.00;99.90;;;;;;6135884;23;20085;-77
2022/01/28 17:43:15;;;;;;;5.60;1.63;;;6.00;99.90;;;;;;6134816;23;20498;-78
2022/01/28 17:45:41;;;;;;;3.33;1.10;;;6.00;99.90;;;;;;6137298;23;20057;-78
2022/01/28 17:48:07;;;;;;;7.13;1.70;;;6.10;99.90;;;;;;6138233;23;20010;-77
2022/01/28 17:50:33;;;;;;;6.07;1.77;;;6.10;99.90;;;;;;6112037;23;20098;-78
2022/01/28 17:53:00;;;;;;;8.18;2.03;;;6.10;99.90;;;;;;6098404;23;20014;-78
2022/01/28 17:55:30;;;;;;;5.20;1.52;;;6.20;99.90;;;;;;6137595;23;20436;-78
2022/01/28 17:57:57;;;;;;;5.40;1.73;;;6.20;99.90;;;;;;6112464;23;20111;-77
2022/01/28 18:00:23;;;;;;;9.15;4.28;;;6.30;99.90;;;;;;6135757;23;20017;-77
2022/01/28 18:02:48;;;;;;;8.70;5.03;;;6.30;99.90;;;;;;6112494;23;20029;-78
2022/01/28 18:05:14;;;;;;;15.82;9.18;;;6.30;99.90;;;;;;6111981;23;20025;-78
2022/01/28 18:07:40;;;;;;;14.57;8.48;;;6.30;99.90;;;;;;6112486;23;20003;-78
2022/01/28 18:10:06;;;;;;;14.10;8.45;;;6.20;99.90;;;;;;6136103;23;20610;-78
2022/01/28 18:12:32;;;;;;;14.48;9.40;;;6.20;99.90;;;;;;6088198;23;20033;-77
2022/01/28 18:14:58;;;;;;;13.95;9.05;;;6.20;99.90;;;;;;6087779;23;20014;-77
2022/01/28 18:17:23;;;;;;;15.55;9.90;;;6.10;99.90;;;;;;6088051;23;20034;-77
2022/01/28 18:19:49;;;;;;;21.42;13.07;;;6.10;99.90;;;;;;6112075;23;20033;-77
2022/01/28 18:22:15;;;;;;;18.88;11.52;;;6.10;99.90;;;;;;6136546;23;20006;-78
2022/01/28 18:24:40;;;;;;;18.13;12.18;;;6.10;99.90;;;;;;6136266;23;20014;-77
2022/01/28 18:27:07;;;;;;;17.08;10.80;;;6.10;99.90;;;;;;6139091;23;20030;-78
2022/01/28 18:29:33;;;;;;;20.88;13.60;;;6.10;99.90;;;;;;6122260;23;20033;-78
2022/01/28 18:31:58;;;;;;;20.42;13.02;;;6.00;99.90;;;;;;6110531;23;20009;-77
2022/01/28 18:34:24;;;;;;;21.40;12.70;;;6.10;99.90;;;;;;6145468;23;20061;-79
2022/01/28 18:36:51;;;;;;;19.58;12.27;;;6.00;99.90;;;;;;6140828;23;20018;-78
2022/01/28 18:39:16;;;;;;;23.05;14.98;;;6.10;99.90;;;;;;6136805;23;20006;-78
2022/01/28 18:41:45;;;;;;;23.88;14.93;;;6.00;99.90;;;;;;6136700;23;20105;-78
2022/01/28 18:44:20;;;;;;;25.83;15.27;;;6.10;99.90;;;;;;6137401;23;20017;-78
2022/01/28 18:47:02;;;;;;;21.38;14.98;;;6.10;99.90;;;;;;6138284;23;20010;-79
2022/01/28 18:49:30;;;;;;;21.58;13.38;;;6.00;99.90;;;;;;6137228;23;20001;-78
2022/01/28 18:52:00;;;;;;;24.13;14.63;;;6.00;99.90;;;;;;6109420;23;20041;-78
2022/01/28 18:54:26;;;;;;;;;;;6.00;99.90;;;;;;6138001;23;20037;-77
2022/01/28 18:56:52;;;;;;;20.08;13.60;;;6.00;99.90;;;;;;6136098;23;19948;-78
2022/01/28 18:59:17;;;;;;;18.90;12.13;;;6.00;99.90;;;;;;6136746;23;20309;-77
2022/01/28 19:01:43;;;;;;;17.52;11.07;;;5.90;99.90;;;;;;6136150;23;20025;-77
2022/01/28 19:04:09;;;;;;;20.80;12.63;;;5.90;99.90;;;;;;6136233;23;20020;-77
2022/01/28 19:14:10;;;;;;;24.35;14.30;;;5.80;99.90;;;;;;6137194;23;20466;-78
2022/01/28 19:17:19;;;;;;;19.80;11.90;;;5.80;99.90;;;;;;6136942;23;20014;-78
2022/01/28 19:35:10;;;;;;;20.15;12.40;;;5.80;99.90;;;;;;6128232;23;20411;-77
2022/01/28 19:37:37;;;;;;;28.13;15.18;;;5.80;99.90;;;;;;6137110;23;20329;-78
2022/01/28 19:40:04;;;;;;;24.95;13.30;;;5.80;99.90;;;;;;6135827;23;20013;-78